sensor_id;sensor_type;location;lat;lon;timestamp;P1;durP1;ratioP1;P2;durP2;ratioP2
8365;SDS011;4220;42.502;24.188;2022-10-24T00:00:36;2.67;;;2.30;;
8365;SDS011;4220;42.502;24.188;2022-10-24T00:03:07;3.03;;;2.23;;
8365;SDS011;4220;42.502;24.188;2022-10-24T00:05:34;1.85;;;1.70;;
8365;SDS011;4220;42.502;24.188;2022-10-24T00:08:01;3.38;;;2.20;;
8365;SDS011;4220;42.502;24.188;2022-10-24T00:10:28;2.42;;;1.98;;
8365;SDS011;4220;42.502;24.188;2022-10-24T00:12:55;3.22;;;2.42;;
8365;SDS011;4220;42.502;24.188;2022-10-24T00:15:22;3.13;;;2.57;;
8365;SDS011;4220;42.502;24.188;2022-10-24T00:17:49;3.13;;;2.67;;
8365;SDS011;4220;42.502;24.188;2022-10-24T00:20:17;2.80;;;2.45;;
8365;SDS011;4220;42.502;24.188;2022-10-24T00:22:44;4.30;;;3.72;;
8365;SDS011;4220;42.502;24.188;2022-10-24T00:25:11;5.80;;;3.88;;
8365;SDS011;4220;42.502;24.188;2022-10-24T00:27:37;4.00;;;3.50;;
8365;SDS011;4220;42.502;24.188;2022-10-24T00:30:05;4.28;;;3.70;;
8365;SDS011;4220;42.502;24.188;2022-10-24T00:32:33;5.22;;;3.67;;
8365;SDS011;4220;42.502;24.188;2022-10-24T00:34:59;6.25;;;4.40;;
8365;SDS011;4220;42.502;24.188;2022-10-24T00:37:27;6.70;;;5.53;;
8365;SDS011;4220;42.502;24.188;2022-10-24T00:39:54;6.87;;;5.83;;
8365;SDS011;4220;42.502;24.188;2022-10-24T00:42:21;8.30;;;6.27;;
8365;SDS011;4220;42.502;24.188;2022-10-24T00:44:50;8.57;;;6.53;;
8365;SDS011;4220;42.502;24.188;2022-10-24T00:47:18;7.40;;;5.90;;
8365;SDS011;4220;42.502;24.188;2022-10-24T00:49:47;5.90;;;4.33;;
8365;SDS011;4220;42.502;24.188;2022-10-24T00:52:19;5.10;;;3.97;;
8365;SDS011;4220;42.502;24.188;2022-10-24T00:54:50;6.77;;;5.00;;
8365;SDS011;4220;42.502;24.188;2022-10-24T00:57:21;8.17;;;5.70;;
8365;SDS011;4220;42.502;24.188;2022-10-24T00:59:54;5.20;;;4.53;;
8365;SDS011;4220;42.502;24.188;2022-10-24T01:02:23;4.60;;;3.90;;
8365;SDS011;4220;42.502;24.188;2022-10-24T01:04:50;4.07;;;3.23;;
8365;SDS011;4220;42.502;24.188;2022-10-24T01:07:22;4.60;;;3.33;;
8365;SDS011;4220;42.502;24.188;2022-10-24T01:10:10;4.50;;;3.00;;
8365;SDS011;4220;42.502;24.188;2022-10-24T01:12:57;6.23;;;3.13;;
8365;SDS011;4220;42.502;24.188;2022-10-24T01:15:33;4.27;;;3.40;;
8365;SDS011;4220;42.502;24.188;2022-10-24T01:18:09;4.70;;;3.63;;
8365;SDS011;4220;42.502;24.188;2022-10-24T01:23:44;4.70;;;3.93;;
8365;SDS011;4220;42.502;24.188;2022-10-24T01:29:45;2.43;;;1.97;;
8365;SDS011;4220;42.502;24.188;2022-10-24T01:32:16;2.37;;;2.10;;
8365;SDS011;4220;42.502;24.188;2022-10-24T01:34:52;1.90;;;1.70;;
8365;SDS011;4220;42.502;24.188;2022-10-24T01:37:27;2.20;;;2.00;;
8365;SDS011;4220;42.502;24.188;2022-10-24T01:40:02;2.67;;;2.17;;
8365;SDS011;4220;42.502;24.188;2022-10-24T01:42:34;1.83;;;1.70;;
8365;SDS011;4220;42.502;24.188;2022-10-24T01:45:06;7.63;;;2.70;;
8365;SDS011;4220;42.502;24.188;2022-10-24T01:47:39;4.87;;;2.70;;
8365;SDS011;4220;42.502;24.188;2022-10-24T01:50:12;7.57;;;5.43;;
8365;SDS011;4220;42.502;24.188;2022-10-24T01:52:41;7.30;;;5.53;;
8365;SDS011;4220;42.502;24.188;2022-10-24T01:55:10;5.97;;;5.00;;
8365;SDS011;4220;42.502;24.188;2022-10-24T01:57:38;6.37;;;5.20;;
8365;SDS011;4220;42.502;24.188;2022-10-24T02:00:10;6.20;;;5.00;;
8365;SDS011;4220;42.502;24.188;2022-10-24T02:02:43;5.73;;;4.87;;
8365;SDS011;4220;42.502;24.188;2022-10-24T02:05:14;4.20;;;3.80;;
8365;SDS011;4220;42.502;24.188;2022-10-24T02:07:45;6.40;;;4.13;;
8365;SDS011;4220;42.502;24.188;2022-10-24T02:10:18;4.37;;;3.83;;
8365;SDS011;4220;42.502;24.188;2022-10-24T02:12:49;4.93;;;3.37;;
8365;SDS011;4220;42.502;24.188;2022-10-24T02:15:22;3.37;;;3.07;;
8365;SDS011;4220;42.502;24.188;2022-10-24T02:17:51;4.43;;;2.80;;
8365;SDS011;4220;42.502;24.188;2022-10-24T02:20:20;4.13;;;2.50;;
8365;SDS011;4220;42.502;24.188;2022-10-24T02:22:54;2.47;;;2.10;;
8365;SDS011;4220;42.502;24.188;2022-10-24T02:25:28;3.10;;;2.20;;
8365;SDS011;4220;42.502;24.188;2022-10-24T02:28:00;2.50;;;2.30;;
8365;SDS011;4220;42.502;24.188;2022-10-24T02:30:34;2.33;;;2.07;;
8365;SDS011;4220;42.502;24.188;2022-10-24T02:33:05;3.37;;;1.90;;
8365;SDS011;4220;42.502;24.188;2022-10-24T02:35:34;4.50;;;3.10;;
8365;SDS011;4220;42.502;24.188;2022-10-24T02:38:03;3.33;;;2.10;;
8365;SDS011;4220;42.502;24.188;2022-10-24T02:40:37;3.43;;;2.27;;
8365;SDS011;4220;42.502;24.188;2022-10-24T02:43:06;2.90;;;2.27;;
8365;SDS011;4220;42.502;24.188;2022-10-24T02:45:35;2.53;;;2.33;;
8365;SDS011;4220;42.502;24.188;2022-10-24T02:48:04;2.50;;;2.30;;
8365;SDS011;4220;42.502;24.188;2022-10-24T02:50:35;3.00;;;2.53;;
8365;SDS011;4220;42.502;24.188;2022-10-24T02:53:04;4.77;;;3.77;;
8365;SDS011;4220;42.502;24.188;2022-10-24T02:55:33;7.63;;;5.47;;
8365;SDS011;4220;42.502;24.188;2022-10-24T02:58:00;9.53;;;6.27;;
8365;SDS011;4220;42.502;24.188;2022-10-24T03:00:27;7.80;;;5.47;;
8365;SDS011;4220;42.502;24.188;2022-10-24T03:02:55;7.00;;;6.30;;
8365;SDS011;4220;42.502;24.188;2022-10-24T03:05:22;8.43;;;7.00;;
8365;SDS011;4220;42.502;24.188;2022-10-24T03:07:49;8.70;;;6.80;;
8365;SDS011;4220;42.502;24.188;2022-10-24T03:10:16;8.80;;;6.80;;
8365;SDS011;4220;42.502;24.188;2022-10-24T03:12:42;11.60;;;6.80;;
8365;SDS011;4220;42.502;24.188;2022-10-24T03:15:09;11.03;;;6.57;;
8365;SDS011;4220;42.502;24.188;2022-10-24T03:17:36;12.40;;;9.97;;
8365;SDS011;4220;42.502;24.188;2022-10-24T03:20:05;16.83;;;10.90;;
8365;SDS011;4220;42.502;24.188;2022-10-24T03:22:33;12.50;;;9.33;;
8365;SDS011;4220;42.502;24.188;2022-10-24T03:25:00;12.63;;;9.13;;
8365;SDS011;4220;42.502;24.188;2022-10-24T03:27:27;10.67;;;8.67;;
8365;SDS011;4220;42.502;24.188;2022-10-24T03:29:54;13.07;;;10.67;;
8365;SDS011;4220;42.502;24.188;2022-10-24T03:32:21;10.07;;;8.87;;
8365;SDS011;4220;42.502;24.188;2022-10-24T03:34:48;14.10;;;12.27;;
8365;SDS011;4220;42.502;24.188;2022-10-24T03:37:16;9.87;;;8.87;;
8365;SDS011;4220;42.502;24.188;2022-10-24T03:39:43;12.90;;;8.50;;
8365;SDS011;4220;42.502;24.188;2022-10-24T03:42:10;24.33;;;15.23;;
8365;SDS011;4220;42.502;24.188;2022-10-24T03:44:37;14.80;;;9.37;;
8365;SDS011;4220;42.502;24.188;2022-10-24T03:47:04;75.53;;;48.57;;
8365;SDS011;4220;42.502;24.188;2022-10-24T03:49:30;162.43;;;102.50;;
8365;SDS011;4220;42.502;24.188;2022-10-24T03:51:57;130.57;;;88.83;;
8365;SDS011;4220;42.502;24.188;2022-10-24T03:54:26;101.63;;;63.57;;
8365;SDS011;4220;42.502;24.188;2022-10-24T03:56:53;112.37;;;70.77;;
8365;SDS011;4220;42.502;24.188;2022-10-24T03:59:19;27.77;;;18.80;;
8365;SDS011;4220;42.502;24.188;2022-10-24T04:01:46;119.43;;;77.37;;
8365;SDS011;4220;42.502;24.188;2022-10-24T04:04:13;64.90;;;39.37;;
8365;SDS011;4220;42.502;24.188;2022-10-24T04:06:40;23.97;;;16.77;;
8365;SDS011;4220;42.502;24.188;2022-10-24T04:09:07;214.43;;;126.97;;
8365;SDS011;4220;42.502;24.188;2022-10-24T04:11:35;95.00;;;60.20;;
8365;SDS011;4220;42.502;24.188;2022-10-24T04:14:02;44.27;;;31.00;;
8365;SDS011;4220;42.502;24.188;2022-10-24T04:16:29;11.03;;;7.67;;
8365;SDS011;4220;42.502;24.188;2022-10-24T04:18:58;184.80;;;114.60;;
8365;SDS011;4220;42.502;24.188;2022-10-24T04:21:25;121.23;;;78.57;;
8365;SDS011;4220;42.502;24.188;2022-10-24T04:23:52;21.37;;;13.40;;
8365;SDS011;4220;42.502;24.188;2022-10-24T04:26:18;9.20;;;6.23;;
8365;SDS011;4220;42.502;24.188;2022-10-24T04:28:47;8.63;;;4.73;;
8365;SDS011;4220;42.502;24.188;2022-10-24T04:31:14;6.33;;;5.30;;
8365;SDS011;4220;42.502;24.188;2022-10-24T04:33:41;10.47;;;7.43;;
8365;SDS011;4220;42.502;24.188;2022-10-24T04:36:08;9.70;;;7.80;;
8365;SDS011;4220;42.502;24.188;2022-10-24T04:38:35;22.53;;;14.87;;
8365;SDS011;4220;42.502;24.188;2022-10-24T04:41:01;19.07;;;16.73;;
8365;SDS011;4220;42.502;24.188;2022-10-24T04:43:28;16.37;;;11.23;;
8365;SDS011;4220;42.502;24.188;2022-10-24T04:45:57;13.97;;;11.87;;
8365;SDS011;4220;42.502;24.188;2022-10-24T04:48:23;32.17;;;16.40;;
8365;SDS011;4220;42.502;24.188;2022-10-24T04:50:50;17.90;;;12.00;;
8365;SDS011;4220;42.502;24.188;2022-10-24T04:53:17;16.77;;;13.03;;
8365;SDS011;4220;42.502;24.188;2022-10-24T04:55:44;17.93;;;12.80;;
8365;SDS011;4220;42.502;24.188;2022-10-24T04:58:11;15.50;;;11.43;;
8365;SDS011;4220;42.502;24.188;2022-10-24T05:00:38;13.90;;;10.50;;
8365;SDS011;4220;42.502;24.188;2022-10-24T05:03:08;14.07;;;11.73;;
8365;SDS011;4220;42.502;24.188;2022-10-24T05:05:35;14.10;;;10.90;;
8365;SDS011;4220;42.502;24.188;2022-10-24T05:08:01;14.93;;;11.67;;
8365;SDS011;4220;42.502;24.188;2022-10-24T05:10:28;15.67;;;10.83;;
8365;SDS011;4220;42.502;24.188;2022-10-24T05:12:55;18.43;;;9.43;;
8365;SDS011;4220;42.502;24.188;2022-10-24T05:15:22;12.27;;;9.90;;
8365;SDS011;4220;42.502;24.188;2022-10-24T05:17:49;14.70;;;10.43;;
8365;SDS011;4220;42.502;24.188;2022-10-24T05:20:17;12.33;;;9.60;;
8365;SDS011;4220;42.502;24.188;2022-10-24T05:22:44;11.20;;;8.97;;
8365;SDS011;4220;42.502;24.188;2022-10-24T05:25:11;11.80;;;8.60;;
8365;SDS011;4220;42.502;24.188;2022-10-24T05:27:38;9.87;;;7.37;;
8365;SDS011;4220;42.502;24.188;2022-10-24T05:30:05;8.47;;;6.00;;
8365;SDS011;4220;42.502;24.188;2022-10-24T05:32:33;12.57;;;7.07;;
8365;SDS011;4220;42.502;24.188;2022-10-24T05:35:00;10.30;;;7.67;;
8365;SDS011;4220;42.502;24.188;2022-10-24T05:37:28;10.13;;;8.10;;
8365;SDS011;4220;42.502;24.188;2022-10-24T05:39:55;16.30;;;11.07;;
8365;SDS011;4220;42.502;24.188;2022-10-24T05:42:22;18.07;;;12.13;;
8365;SDS011;4220;42.502;24.188;2022-10-24T05:44:48;53.67;;;34.10;;
8365;SDS011;4220;42.502;24.188;2022-10-24T05:47:15;41.83;;;27.17;;
8365;SDS011;4220;42.502;24.188;2022-10-24T05:49:42;43.90;;;26.35;;
8365;SDS011;4220;42.502;24.188;2022-10-24T05:52:09;26.77;;;17.70;;
8365;SDS011;4220;42.502;24.188;2022-10-24T05:54:37;12.97;;;10.43;;
8365;SDS011;4220;42.502;24.188;2022-10-24T05:57:04;10.63;;;8.23;;
8365;SDS011;4220;42.502;24.188;2022-10-24T05:59:31;8.98;;;6.60;;
8365;SDS011;4220;42.502;24.188;2022-10-24T06:01:58;9.00;;;7.17;;
8365;SDS011;4220;42.502;24.188;2022-10-24T06:04:24;11.30;;;9.25;;
8365;SDS011;4220;42.502;24.188;2022-10-24T06:06:51;12.87;;;10.13;;
8365;SDS011;4220;42.502;24.188;2022-10-24T06:09:18;14.90;;;11.47;;
8365;SDS011;4220;42.502;24.188;2022-10-24T06:11:46;23.17;;;14.82;;
8365;SDS011;4220;42.502;24.188;2022-10-24T06:14:13;19.43;;;14.40;;
8365;SDS011;4220;42.502;24.188;2022-10-24T06:16:41;21.38;;;17.70;;
8365;SDS011;4220;42.502;24.188;2022-10-24T06:19:08;19.27;;;14.27;;
8365;SDS011;4220;42.502;24.188;2022-10-24T06:21:34;19.58;;;13.38;;
8365;SDS011;4220;42.502;24.188;2022-10-24T06:24:01;15.70;;;12.07;;
8365;SDS011;4220;42.502;24.188;2022-10-24T06:26:28;18.48;;;10.60;;
8365;SDS011;4220;42.502;24.188;2022-10-24T06:28:56;13.75;;;9.40;;
8365;SDS011;4220;42.502;24.188;2022-10-24T06:31:23;13.43;;;9.52;;
8365;SDS011;4220;42.502;24.188;2022-10-24T06:33:50;14.82;;;9.15;;
8365;SDS011;4220;42.502;24.188;2022-10-24T06:36:19;13.60;;;8.93;;
8365;SDS011;4220;42.502;24.188;2022-10-24T06:38:46;18.27;;;10.25;;
8365;SDS011;4220;42.502;24.188;2022-10-24T06:41:13;15.10;;;10.68;;
8365;SDS011;4220;42.502;24.188;2022-10-24T06:43:41;16.33;;;9.82;;
8365;SDS011;4220;42.502;24.188;2022-10-24T06:46:12;16.52;;;10.82;;
8365;SDS011;4220;42.502;24.188;2022-10-24T06:48:40;17.17;;;11.30;;
8365;SDS011;4220;42.502;24.188;2022-10-24T06:51:07;20.08;;;11.27;;
8365;SDS011;4220;42.502;24.188;2022-10-24T06:53:34;18.55;;;11.35;;
8365;SDS011;4220;42.502;24.188;2022-10-24T06:56:01;21.00;;;11.32;;
8365;SDS011;4220;42.502;24.188;2022-10-24T06:58:29;24.60;;;12.60;;
8365;SDS011;4220;42.502;24.188;2022-10-24T07:00:57;17.08;;;12.35;;
8365;SDS011;4220;42.502;24.188;2022-10-24T07:03:26;27.30;;;12.98;;
8365;SDS011;4220;42.502;24.188;2022-10-24T07:05:52;18.10;;;13.02;;
8365;SDS011;4220;42.502;24.188;2022-10-24T07:08:19;16.02;;;11.48;;
8365;SDS011;4220;42.502;24.188;2022-10-24T07:10:46;25.17;;;13.20;;
8365;SDS011;4220;42.502;24.188;2022-10-24T07:13:13;20.58;;;12.38;;
8365;SDS011;4220;42.502;24.188;2022-10-24T07:15:40;21.60;;;11.00;;
8365;SDS011;4220;42.502;24.188;2022-10-24T07:18:11;22.73;;;11.52;;
8365;SDS011;4220;42.502;24.188;2022-10-24T07:20:41;20.45;;;9.70;;
8365;SDS011;4220;42.502;24.188;2022-10-24T07:23:08;15.18;;;10.52;;
8365;SDS011;4220;42.502;24.188;2022-10-24T07:25:36;14.85;;;9.45;;
8365;SDS011;4220;42.502;24.188;2022-10-24T07:28:03;16.02;;;9.07;;
8365;SDS011;4220;42.502;24.188;2022-10-24T07:30:30;20.80;;;11.40;;
8365;SDS011;4220;42.502;24.188;2022-10-24T07:32:57;21.05;;;10.57;;
8365;SDS011;4220;42.502;24.188;2022-10-24T07:35:24;17.27;;;9.93;;
8365;SDS011;4220;42.502;24.188;2022-10-24T07:37:52;16.67;;;12.57;;
8365;SDS011;4220;42.502;24.188;2022-10-24T07:40:19;19.33;;;10.65;;
8365;SDS011;4220;42.502;24.188;2022-10-24T07:42:46;17.85;;;10.75;;
8365;SDS011;4220;42.502;24.188;2022-10-24T07:45:13;16.95;;;11.40;;
8365;SDS011;4220;42.502;24.188;2022-10-24T07:47:40;33.42;;;15.25;;
8365;SDS011;4220;42.502;24.188;2022-10-24T07:50:07;35.53;;;17.67;;
8365;SDS011;4220;42.502;24.188;2022-10-24T07:52:35;17.88;;;12.38;;
8365;SDS011;4220;42.502;24.188;2022-10-24T07:55:03;18.60;;;12.23;;
8365;SDS011;4220;42.502;24.188;2022-10-24T07:57:30;24.05;;;14.35;;
8365;SDS011;4220;42.502;24.188;2022-10-24T07:59:57;21.75;;;13.65;;
8365;SDS011;4220;42.502;24.188;2022-10-24T08:02:24;16.15;;;11.88;;
8365;SDS011;4220;42.502;24.188;2022-10-24T08:04:51;22.88;;;13.90;;
8365;SDS011;4220;42.502;24.188;2022-10-24T08:07:18;13.43;;;9.32;;
8365;SDS011;4220;42.502;24.188;2022-10-24T08:09:45;18.40;;;10.15;;
8365;SDS011;4220;42.502;24.188;2022-10-24T08:12:16;14.98;;;7.70;;
8365;SDS011;4220;42.502;24.188;2022-10-24T08:14:44;12.77;;;7.65;;
8365;SDS011;4220;42.502;24.188;2022-10-24T08:17:11;11.43;;;6.00;;
8365;SDS011;4220;42.502;24.188;2022-10-24T08:19:38;10.90;;;5.70;;
8365;SDS011;4220;42.502;24.188;2022-10-24T08:22:06;7.75;;;5.13;;
8365;SDS011;4220;42.502;24.188;2022-10-24T08:24:34;7.65;;;5.32;;
8365;SDS011;4220;42.502;24.188;2022-10-24T08:27:01;6.55;;;4.47;;
8365;SDS011;4220;42.502;24.188;2022-10-24T08:29:29;6.78;;;4.43;;
8365;SDS011;4220;42.502;24.188;2022-10-24T08:31:56;9.55;;;4.80;;
8365;SDS011;4220;42.502;24.188;2022-10-24T08:34:23;5.13;;;4.18;;
8365;SDS011;4220;42.502;24.188;2022-10-24T08:36:49;6.03;;;4.22;;
8365;SDS011;4220;42.502;24.188;2022-10-24T08:39:17;7.47;;;4.63;;
8365;SDS011;4220;42.502;24.188;2022-10-24T08:41:45;12.25;;;5.05;;
8365;SDS011;4220;42.502;24.188;2022-10-24T08:44:17;6.80;;;4.50;;
8365;SDS011;4220;42.502;24.188;2022-10-24T08:46:48;6.15;;;4.15;;
8365;SDS011;4220;42.502;24.188;2022-10-24T08:49:28;6.18;;;3.92;;
8365;SDS011;4220;42.502;24.188;2022-10-24T08:52:00;8.10;;;3.25;;
8365;SDS011;4220;42.502;24.188;2022-10-24T08:54:33;6.97;;;3.72;;
8365;SDS011;4220;42.502;24.188;2022-10-24T08:57:02;6.60;;;3.45;;
8365;SDS011;4220;42.502;24.188;2022-10-24T08:59:30;7.40;;;3.22;;
8365;SDS011;4220;42.502;24.188;2022-10-24T09:02:02;5.18;;;3.40;;
8365;SDS011;4220;42.502;24.188;2022-10-24T09:04:38;8.50;;;3.90;;
8365;SDS011;4220;42.502;24.188;2022-10-24T09:07:13;5.75;;;3.88;;
8365;SDS011;4220;42.502;24.188;2022-10-24T09:09:44;6.47;;;3.67;;
8365;SDS011;4220;42.502;24.188;2022-10-24T09:12:13;10.55;;;4.20;;
8365;SDS011;4220;42.502;24.188;2022-10-24T09:14:42;10.57;;;3.97;;
8365;SDS011;4220;42.502;24.188;2022-10-24T09:17:13;8.40;;;3.25;;
8365;SDS011;4220;42.502;24.188;2022-10-24T09:19:46;8.95;;;3.60;;
8365;SDS011;4220;42.502;24.188;2022-10-24T09:22:17;12.55;;;4.78;;
8365;SDS011;4220;42.502;24.188;2022-10-24T09:24:45;8.52;;;3.88;;
8365;SDS011;4220;42.502;24.188;2022-10-24T09:27:17;10.07;;;4.90;;
8365;SDS011;4220;42.502;24.188;2022-10-24T09:29:47;6.68;;;3.50;;
8365;SDS011;4220;42.502;24.188;2022-10-24T09:32:17;18.35;;;5.95;;
8365;SDS011;4220;42.502;24.188;2022-10-24T09:34:45;8.68;;;5.00;;
8365;SDS011;4220;42.502;24.188;2022-10-24T09:40:16;14.13;;;5.25;;
8365;SDS011;4220;42.502;24.188;2022-10-24T09:42:48;11.80;;;4.97;;
8365;SDS011;4220;42.502;24.188;2022-10-24T09:45:19;13.77;;;7.78;;
8365;SDS011;4220;42.502;24.188;2022-10-24T09:48:01;9.20;;;4.10;;
8365;SDS011;4220;42.502;24.188;2022-10-24T09:50:31;12.88;;;3.55;;
8365;SDS011;4220;42.502;24.188;2022-10-24T09:53:00;7.50;;;4.10;;
8365;SDS011;4220;42.502;24.188;2022-10-24T09:55:28;10.48;;;3.78;;
8365;SDS011;4220;42.502;24.188;2022-10-24T09:57:56;14.80;;;4.13;;
8365;SDS011;4220;42.502;24.188;2022-10-24T10:00:30;11.88;;;4.13;;
8365;SDS011;4220;42.502;24.188;2022-10-24T10:02:59;13.07;;;3.85;;
8365;SDS011;4220;42.502;24.188;2022-10-24T10:05:40;11.32;;;4.18;;
8365;SDS011;4220;42.502;24.188;2022-10-24T10:08:10;13.20;;;4.30;;
8365;SDS011;4220;42.502;24.188;2022-10-24T10:10:41;12.02;;;3.72;;
8365;SDS011;4220;42.502;24.188;2022-10-24T10:13:18;8.73;;;3.47;;
8365;SDS011;4220;42.502;24.188;2022-10-24T10:15:49;11.43;;;3.78;;
8365;SDS011;4220;42.502;24.188;2022-10-24T10:18:30;12.23;;;3.90;;
8365;SDS011;4220;42.502;24.188;2022-10-24T10:21:00;11.68;;;3.75;;
8365;SDS011;4220;42.502;24.188;2022-10-24T10:23:34;16.17;;;4.05;;
8365;SDS011;4220;42.502;24.188;2022-10-24T10:26:03;16.20;;;4.15;;
8365;SDS011;4220;42.502;24.188;2022-10-24T10:28:41;9.70;;;3.88;;
8365;SDS011;4220;42.502;24.188;2022-10-24T10:31:10;14.20;;;3.58;;
8365;SDS011;4220;42.502;24.188;2022-10-24T10:33:41;15.32;;;3.30;;
8365;SDS011;4220;42.502;24.188;2022-10-24T10:36:15;16.10;;;3.63;;
8365;SDS011;4220;42.502;24.188;2022-10-24T10:38:49;9.20;;;3.25;;
8365;SDS011;4220;42.502;24.188;2022-10-24T10:44:15;13.65;;;3.83;;
8365;SDS011;4220;42.502;24.188;2022-10-24T10:46:53;14.88;;;3.97;;
8365;SDS011;4220;42.502;24.188;2022-10-24T10:49:33;15.15;;;3.97;;
8365;SDS011;4220;42.502;24.188;2022-10-24T10:52:05;12.25;;;4.43;;
8365;SDS011;4220;42.502;24.188;2022-10-24T10:54:41;10.40;;;3.60;;
8365;SDS011;4220;42.502;24.188;2022-10-24T10:57:20;10.32;;;3.55;;
8365;SDS011;4220;42.502;24.188;2022-10-24T10:59:50;14.77;;;4.95;;
8365;SDS011;4220;42.502;24.188;2022-10-24T11:02:27;17.58;;;4.18;;
8365;SDS011;4220;42.502;24.188;2022-10-24T11:05:08;19.05;;;4.40;;
8365;SDS011;4220;42.502;24.188;2022-10-24T11:07:51;13.25;;;4.22;;
8365;SDS011;4220;42.502;24.188;2022-10-24T11:10:27;17.08;;;4.47;;
8365;SDS011;4220;42.502;24.188;2022-10-24T11:12:59;7.97;;;3.42;;
8365;SDS011;4220;42.502;24.188;2022-10-24T11:15:31;13.63;;;3.88;;
8365;SDS011;4220;42.502;24.188;2022-10-24T11:18:03;8.98;;;3.78;;
8365;SDS011;4220;42.502;24.188;2022-10-24T11:20:36;14.80;;;3.80;;
8365;SDS011;4220;42.502;24.188;2022-10-24T11:23:11;16.10;;;4.32;;
8365;SDS011;4220;42.502;24.188;2022-10-24T11:25:43;12.95;;;3.92;;
8365;SDS011;4220;42.502;24.188;2022-10-24T11:28:15;15.13;;;3.55;;
8365;SDS011;4220;42.502;24.188;2022-10-24T11:30:57;19.67;;;4.13;;
8365;SDS011;4220;42.502;24.188;2022-10-24T11:33:28;14.52;;;4.40;;
8365;SDS011;4220;42.502;24.188;2022-10-24T11:36:04;13.52;;;4.47;;
8365;SDS011;4220;42.502;24.188;2022-10-24T11:38:35;16.25;;;4.22;;
8365;SDS011;4220;42.502;24.188;2022-10-24T11:41:15;14.07;;;4.15;;
8365;SDS011;4220;42.502;24.188;2022-10-24T11:43:49;10.15;;;4.20;;
8365;SDS011;4220;42.502;24.188;2022-10-24T11:46:21;15.18;;;4.10;;
8365;SDS011;4220;42.502;24.188;2022-10-24T11:48:52;17.08;;;4.88;;
8365;SDS011;4220;42.502;24.188;2022-10-24T11:51:26;15.65;;;4.35;;
8365;SDS011;4220;42.502;24.188;2022-10-24T11:54:00;12.68;;;3.80;;
8365;SDS011;4220;42.502;24.188;2022-10-24T11:56:30;10.43;;;4.18;;
8365;SDS011;4220;42.502;24.188;2022-10-24T11:59:06;13.45;;;4.63;;
8365;SDS011;4220;42.502;24.188;2022-10-24T12:01:40;12.75;;;4.15;;
8365;SDS011;4220;42.502;24.188;2022-10-24T12:10:29;13.13;;;4.93;;
8365;SDS011;4220;42.502;24.188;2022-10-24T12:13:10;16.35;;;4.63;;
8365;SDS011;4220;42.502;24.188;2022-10-24T12:15:49;11.00;;;3.72;;
8365;SDS011;4220;42.502;24.188;2022-10-24T12:18:26;16.15;;;3.80;;
8365;SDS011;4220;42.502;24.188;2022-10-24T12:20:58;15.85;;;4.20;;
8365;SDS011;4220;42.502;24.188;2022-10-24T12:23:29;23.30;;;5.35;;
8365;SDS011;4220;42.502;24.188;2022-10-24T12:26:03;18.70;;;4.82;;
8365;SDS011;4220;42.502;24.188;2022-10-24T12:28:32;13.23;;;4.13;;
8365;SDS011;4220;42.502;24.188;2022-10-24T12:31:06;13.98;;;4.05;;
8365;SDS011;4220;42.502;24.188;2022-10-24T12:33:44;13.65;;;4.60;;
8365;SDS011;4220;42.502;24.188;2022-10-24T12:36:12;16.05;;;3.90;;
8365;SDS011;4220;42.502;24.188;2022-10-24T12:41:37;17.40;;;3.95;;
8365;SDS011;4220;42.502;24.188;2022-10-24T12:53:28;14.57;;;3.83;;
8365;SDS011;4220;42.502;24.188;2022-10-24T12:56:06;12.52;;;3.35;;
8365;SDS011;4220;42.502;24.188;2022-10-24T12:58:41;16.52;;;4.20;;
8365;SDS011;4220;42.502;24.188;2022-10-24T13:01:10;20.45;;;4.97;;
8365;SDS011;4220;42.502;24.188;2022-10-24T13:04:01;15.52;;;3.50;;
8365;SDS011;4220;42.502;24.188;2022-10-24T13:06:59;20.05;;;4.65;;
8365;SDS011;4220;42.502;24.188;2022-10-24T13:09:40;11.20;;;3.85;;
8365;SDS011;4220;42.502;24.188;2022-10-24T13:12:21;20.67;;;5.10;;
8365;SDS011;4220;42.502;24.188;2022-10-24T13:15:18;17.52;;;3.92;;
8365;SDS011;4220;42.502;24.188;2022-10-24T13:17:52;15.90;;;3.78;;
8365;SDS011;4220;42.502;24.188;2022-10-24T13:20:32;11.88;;;4.10;;
8365;SDS011;4220;42.502;24.188;2022-10-24T13:23:04;12.88;;;3.70;;
8365;SDS011;4220;42.502;24.188;2022-10-24T13:25:46;15.43;;;6.93;;
8365;SDS011;4220;42.502;24.188;2022-10-24T13:28:38;26.52;;;11.75;;
8365;SDS011;4220;42.502;24.188;2022-10-24T13:34:16;19.52;;;4.07;;
8365;SDS011;4220;42.502;24.188;2022-10-24T13:36:49;18.02;;;4.22;;
8365;SDS011;4220;42.502;24.188;2022-10-24T13:39:23;17.10;;;3.85;;
8365;SDS011;4220;42.502;24.188;2022-10-24T13:41:55;13.88;;;4.50;;
8365;SDS011;4220;42.502;24.188;2022-10-24T13:44:28;14.40;;;4.43;;
8365;SDS011;4220;42.502;24.188;2022-10-24T13:47:01;11.82;;;3.75;;
8365;SDS011;4220;42.502;24.188;2022-10-24T13:49:36;13.13;;;4.95;;
8365;SDS011;4220;42.502;24.188;2022-10-24T13:52:07;11.05;;;4.55;;
8365;SDS011;4220;42.502;24.188;2022-10-24T13:54:41;62.47;;;44.17;;
8365;SDS011;4220;42.502;24.188;2022-10-24T13:57:20;15.48;;;4.70;;
8365;SDS011;4220;42.502;24.188;2022-10-24T13:59:53;18.52;;;4.47;;
8365;SDS011;4220;42.502;24.188;2022-10-24T14:02:22;13.10;;;4.78;;
8365;SDS011;4220;42.502;24.188;2022-10-24T14:04:53;20.13;;;4.63;;
8365;SDS011;4220;42.502;24.188;2022-10-24T14:07:22;17.10;;;4.80;;
8365;SDS011;4220;42.502;24.188;2022-10-24T14:09:54;12.98;;;3.80;;
8365;SDS011;4220;42.502;24.188;2022-10-24T14:12:25;15.30;;;5.13;;
8365;SDS011;4220;42.502;24.188;2022-10-24T14:14:57;13.02;;;3.97;;
8365;SDS011;4220;42.502;24.188;2022-10-24T14:17:27;17.45;;;5.03;;
8365;SDS011;4220;42.502;24.188;2022-10-24T14:19:56;21.70;;;5.60;;
8365;SDS011;4220;42.502;24.188;2022-10-24T14:22:26;16.88;;;5.55;;
8365;SDS011;4220;42.502;24.188;2022-10-24T14:24:54;18.10;;;5.00;;
8365;SDS011;4220;42.502;24.188;2022-10-24T14:27:22;21.20;;;5.20;;
8365;SDS011;4220;42.502;24.188;2022-10-24T14:29:50;21.00;;;5.93;;
8365;SDS011;4220;42.502;24.188;2022-10-24T14:32:20;14.75;;;4.93;;
8365;SDS011;4220;42.502;24.188;2022-10-24T14:34:47;16.55;;;4.35;;
8365;SDS011;4220;42.502;24.188;2022-10-24T14:37:23;19.05;;;5.03;;
8365;SDS011;4220;42.502;24.188;2022-10-24T14:39:53;19.13;;;4.32;;
8365;SDS011;4220;42.502;24.188;2022-10-24T14:42:20;17.38;;;5.75;;
8365;SDS011;4220;42.502;24.188;2022-10-24T14:44:47;17.58;;;5.20;;
8365;SDS011;4220;42.502;24.188;2022-10-24T14:47:24;20.83;;;5.10;;
8365;SDS011;4220;42.502;24.188;2022-10-24T14:49:54;17.65;;;5.28;;
8365;SDS011;4220;42.502;24.188;2022-10-24T14:52:26;17.88;;;5.28;;
8365;SDS011;4220;42.502;24.188;2022-10-24T14:54:57;20.48;;;4.90;;
8365;SDS011;4220;42.502;24.188;2022-10-24T14:57:27;14.20;;;4.72;;
8365;SDS011;4220;42.502;24.188;2022-10-24T14:59:56;14.65;;;4.63;;
8365;SDS011;4220;42.502;24.188;2022-10-24T15:02:29;13.82;;;4.68;;
8365;SDS011;4220;42.502;24.188;2022-10-24T15:07:58;20.05;;;5.03;;
8365;SDS011;4220;42.502;24.188;2022-10-24T15:10:31;21.45;;;5.60;;
8365;SDS011;4220;42.502;24.188;2022-10-24T15:13:03;21.60;;;5.78;;
8365;SDS011;4220;42.502;24.188;2022-10-24T15:15:45;22.95;;;6.07;;
8365;SDS011;4220;42.502;24.188;2022-10-24T15:18:18;26.23;;;5.72;;
8365;SDS011;4220;42.502;24.188;2022-10-24T15:20:47;26.55;;;6.38;;
8365;SDS011;4220;42.502;24.188;2022-10-24T15:23:17;22.35;;;8.55;;
8365;SDS011;4220;42.502;24.188;2022-10-24T15:25:55;33.20;;;12.25;;
8365;SDS011;4220;42.502;24.188;2022-10-24T15:28:41;27.10;;;10.38;;
8365;SDS011;4220;42.502;24.188;2022-10-24T15:31:10;33.40;;;9.63;;
8365;SDS011;4220;42.502;24.188;2022-10-24T15:33:39;22.75;;;8.35;;
8365;SDS011;4220;42.502;24.188;2022-10-24T15:36:06;20.30;;;6.68;;
8365;SDS011;4220;42.502;24.188;2022-10-24T15:38:42;20.40;;;6.45;;
8365;SDS011;4220;42.502;24.188;2022-10-24T15:41:09;17.02;;;5.78;;
8365;SDS011;4220;42.502;24.188;2022-10-24T15:43:36;21.92;;;8.27;;